Repülőgépek

Légitársaságok, jegyinformációk és hirek a nagyvilágból.

Hó nehezíti a forgalmat V.3

Posted by Admin On január - 30 - 2010

Hó nehezíti a forgalmat V.3Az éjjel kezdődött intenzív havazás miatt szünetel a forgalom Ferihegyen. Hardy Mihály, a Budapest Airport szóvivője elmondta, hogy a havas flotta folyamatosan dolgozik, hogy megtisztítsa a pályákat és a gurulóutakat. V.3: a reptér várhatóan 19:00-ig nem fogad és nem is indít járatokat.

Az érkező járatokat szomszédos országok reptereire irányítják. A szóvivő elmondta hogy a problémát a rossz tapadás okozza, mely mellett kockázatos lenne a leszállás.

Az időjárás előrejelzés szerint még holnap hajnalig is biztosan lesz kisebb-nagyobb intenzitású havazás. Íme a jelenlegi TAF:

TAF LHBP 301100Z 3012/3112 36006KT 3000 -SN BR SCT005 OVC015 TEMPO 3012/3017 0600 +SN VV002 TEMPO 3017/3024 5000 -SN BR BECMG 3022/3101 33012KT TEMPO 3100/3108 1500 SN BR BKN003 OVC015

3 Responses to “Hó nehezíti a forgalmat V.3”

  1. Whetepeople szerint:

    Erre mindig is kíváncsi voltam, hogy Ferihegynek van külön flottája a hó eltakarítására, vagy ezeket a járműveket bérlik ilyenkor?

  2. Lengyel Dániel szerint:

    Szia!

    Tudomásom szerint teljesen saját flottájuk van, nem bérelt.

  3. Whetepeople szerint:

    Köszi, igen a képen sem a szokásos FKF es hókotró van :)

Leave a Reply


Twitter

    Photos